»·PEaware :: WAT234 KPSP-KOXR

WAT234 :: KPSP-KOXR

FLIGHT INFORMATION

Flight Status: Arrived
Operator:
Walker Air Transport
More flights by this operator :: More flights under this callsign
Pilot: Eduardo Elias G. (24838)
Aircraft: SOCATA TBM-900
(TBM9)
More flights by this aircraft type
Origin: KPSP Palm Springs Intl
United States
Destination: KOXR Oxnard
United States
More flights between these airports :: More routes between these airports
Route: +CATH1 PSP V388 DEWAY POM VNY V186 FIM
File this flight plan on PilotEdge
Remarks: Tec route PSPP15
Altitude:
(Current/Filed)
12,000ft
Speed:
(Current/Filed)
210kts
Departed: 20-Aug-20 07:50 PM
Arrived: 20-Aug-20 08:38 PM
Distance/Time
Traveled:
137nm/0:48
Distance/Time
To Go:
Arrived

Flight Plot

Page will automatically refresh every two minutes.

Flight plan parsing failed; only flown route is shown


Map Options




Map Legend


Flown Route
Filed Route
Departure Airport
Arrival Airport
Navaid (VOR, NDB)
Fix

Horizontal Profiles

Position Reports

Time Latitude Longitude Heading Altitude Ground
Speed
20-Aug-20 19:15 33.825578 -116.508730 269 429ft 0kts
20-Aug-20 19:16 33.825578 -116.508730 269 429ft 0kts
20-Aug-20 19:17 33.825578 -116.508730 269 429ft 0kts
20-Aug-20 19:18 33.825578 -116.508730 269 429ft 0kts
20-Aug-20 19:19 33.825578 -116.508730 269 429ft 0kts
20-Aug-20 19:20 33.825578 -116.508730 269 429ft 0kts
20-Aug-20 19:21 33.825578 -116.508730 269 429ft 0kts
20-Aug-20 19:22 33.825578 -116.508730 269 429ft 0kts
20-Aug-20 19:23 33.825578 -116.508730 269 429ft 0kts
20-Aug-20 19:24 33.825578 -116.508730 269 429ft 0kts
20-Aug-20 19:25 33.825578 -116.508730 269 429ft 0kts
20-Aug-20 19:26 33.825578 -116.508730 269 429ft 0kts
20-Aug-20 19:27 33.825578 -116.508730 269 429ft 0kts
20-Aug-20 19:28 33.825578 -116.508730 269 429ft 0kts
20-Aug-20 19:29 33.825578 -116.508730 269 429ft 0kts
20-Aug-20 19:30 33.825578 -116.508730 269 429ft 0kts
20-Aug-20 19:31 33.825578 -116.508730 269 429ft 0kts
20-Aug-20 19:32 33.825578 -116.508730 269 429ft 0kts
20-Aug-20 19:33 33.825578 -116.508730 269 429ft 0kts
20-Aug-20 19:34 33.825578 -116.508730 269 429ft 0kts
20-Aug-20 19:35 33.825578 -116.508730 269 429ft 0kts
20-Aug-20 19:36 33.825578 -116.508730 269 429ft 0kts
20-Aug-20 19:37 33.825578 -116.508730 269 429ft 0kts
20-Aug-20 19:38 33.825578 -116.508730 269 429ft 0kts
20-Aug-20 19:39 33.825578 -116.508730 269 429ft 0kts
20-Aug-20 19:40 33.825578 -116.508730 269 429ft 0kts
20-Aug-20 19:41 33.825578 -116.508730 269 429ft 0kts
20-Aug-20 19:42 33.825562 -116.509355 225 429ft 4kts
20-Aug-20 19:43 33.825403 -116.509182 82 429ft 0kts
20-Aug-20 19:44 33.825411 -116.509082 87 429ft 0kts
20-Aug-20 19:45 33.825353 -116.507292 89 429ft 12kts
20-Aug-20 19:46 33.823655 -116.504362 143 429ft 20kts
20-Aug-20 19:47 33.819145 -116.500306 143 429ft 19kts
20-Aug-20 19:48 33.818516 -116.499116 90 429ft 6kts
20-Aug-20 19:49 33.823090 -116.501770 324 429ft 105kts
20-Aug-20 19:50 33.853011 -116.533432 319 2058ft 176kts
20-Aug-20 19:51 33.895293 -116.574692 320 3607ft 197kts
20-Aug-20 19:52 33.946231 -116.581680 41 5220ft 202kts
20-Aug-20 19:53 33.932627 -116.524303 138 6903ft 183kts
20-Aug-20 19:54 33.890686 -116.476727 118 7910ft 212kts
20-Aug-20 19:55 33.861926 -116.410809 116 9504ft 215kts
20-Aug-20 19:56 33.833936 -116.345067 115 11281ft 213kts
20-Aug-20 19:57 33.805517 -116.278326 114 12013ft 239kts
20-Aug-20 19:58 33.804575 -116.202947 23 12001ft 249kts
20-Aug-20 19:59 33.839931 -116.260743 275 11989ft 267kts
20-Aug-20 20:00 33.858660 -116.349189 287 11999ft 267kts
20-Aug-20 20:01 33.878725 -116.435852 287 11999ft 268kts
20-Aug-20 20:02 33.899124 -116.524195 287 12001ft 272kts
20-Aug-20 20:03 33.920747 -116.618131 287 12000ft 275kts
20-Aug-20 20:04 33.942031 -116.710920 286 11999ft 275kts
20-Aug-20 20:05 33.956620 -116.801993 279 11999ft 277kts
20-Aug-20 20:06 33.968501 -116.895280 279 12000ft 279kts
20-Aug-20 20:07 33.980784 -116.992301 279 11871ft 282kts
20-Aug-20 20:08 33.993046 -117.089831 278 11961ft 278kts
20-Aug-20 20:09 34.005363 -117.188367 278 11995ft 280kts
20-Aug-20 20:10 34.017481 -117.286067 278 11987ft 281kts
20-Aug-20 20:11 34.029811 -117.386111 278 11982ft 281kts
20-Aug-20 20:12 34.042126 -117.486682 278 11980ft 280kts
20-Aug-20 20:13 34.053597 -117.581047 278 11981ft 279kts
20-Aug-20 20:14 34.064771 -117.673544 277 11988ft 279kts
20-Aug-20 20:15 34.075922 -117.766451 277 11970ft 279kts
20-Aug-20 20:16 34.094024 -117.861996 283 11915ft 280kts
20-Aug-20 20:17 34.113135 -117.953855 283 11960ft 281kts
20-Aug-20 20:18 34.132144 -118.045609 283 11998ft 282kts
20-Aug-20 20:19 34.151042 -118.137194 283 11999ft 280kts
20-Aug-20 20:20 34.169797 -118.228462 283 11793ft 279kts
20-Aug-20 20:21 34.188270 -118.318639 283 10762ft 265kts
20-Aug-20 20:22 34.206330 -118.407585 284 9711ft 255kts
20-Aug-20 20:23 34.223645 -118.491887 288 8198ft 242kts
20-Aug-20 20:24 34.222524 -118.571676 264 6589ft 216kts
20-Aug-20 20:25 34.215099 -118.642784 265 5078ft 182kts
20-Aug-20 20:26 34.209634 -118.698307 265 5024ft 161kts
20-Aug-20 20:27 34.203281 -118.762692 265 5007ft 190kts
20-Aug-20 20:28 34.197421 -118.829641 272 4997ft 191kts
20-Aug-20 20:29 34.199321 -118.898730 272 4162ft 179kts
20-Aug-20 20:30 34.199783 -118.958238 278 3149ft 123kts
20-Aug-20 20:31 34.202868 -119.006887 277 3205ft 152kts
20-Aug-20 20:32 34.199022 -119.055086 270 3123ft 130kts
20-Aug-20 20:33 34.199140 -119.100539 276 1781ft 131kts
20-Aug-20 20:34 34.200089 -119.139405 269 1099ft 101kts
20-Aug-20 20:36 34.200467 -119.174183 269 441ft 102kts
20-Aug-20 20:37 34.200793 -119.208414 272 40ft 64kts
20-Aug-20 20:38 34.200012 -119.216871 151 40ft 0kts
20-Aug-20 20:39 34.199506 -119.216103 112 40ft 12kts
20-Aug-20 20:40 34.199347 -119.215481 92 40ft 0kts

Navigation Log

Ident Type
Flight plan parsing failed, navigation log unavailable